Time;durP1;ratioP1;P1;durP2;ratioP2;P2;SDS_P1;SDS_P2;PMS_P1;PMS_P2;Temp;Humidity;BMP_temperature;BMP_pressure;BME280_temperature;BME280_humidity;BME280_pressure;Samples;Min_cycle;Max_cycle;Signal;HPM_P1;HPM_P2
2020/12/05 00:01:18;;;;;;;7.07;1.80;;;20.30;13.90;;;;;;5079306;27;20481;-60
2020/12/05 00:03:45;;;;;;;7.30;1.40;;;20.40;27.70;;;;;;5055909;28;20079;-60
2020/12/05 00:06:11;;;;;;;11.27;2.05;;;20.10;13.70;;;;;;5049904;28;20073;-59
2020/12/05 00:08:37;;;;;;;;;;;20.10;14.60;;;;;;5049503;28;20112;-61
2020/12/05 00:11:04;;;;;;;14.63;1.77;;;20.10;15.40;;;;;;5048075;28;19961;-59
2020/12/05 00:13:31;;;;;;;4.95;1.70;;;20.00;15.60;;;;;;5054043;28;20069;-59
2020/12/05 00:15:57;;;;;;;;;;;19.90;16.10;;;;;;5049493;28;20100;-61
2020/12/05 00:18:23;;;;;;;8.50;2.05;;;19.80;15.70;;;;;;5047327;28;20057;-61
2020/12/05 00:20:49;;;;;;;;;;;19.70;15.80;;;;;;5056306;28;20097;-59
2020/12/05 00:23:16;;;;;;;13.70;2.42;;;19.60;17.10;;;;;;5048994;28;19965;-60
2020/12/05 00:25:42;;;;;;;;;;;19.40;16.90;;;;;;5051489;28;20099;-61
2020/12/05 00:28:08;;;;;;;7.97;2.58;;;19.20;18.00;;;;;;5076650;28;19958;-62
2020/12/05 00:30:35;;;;;;;;;;;19.10;17.80;;;;;;5050338;28;20082;-62
2020/12/05 00:33:02;;;;;;;13.83;3.00;;;18.90;17.90;;;;;;5056842;28;20008;-61
2020/12/05 00:35:29;;;;;;;16.38;3.17;;;18.80;17.90;;;;;;5055683;28;20150;-61
2020/12/05 00:37:56;;;;;;;17.45;4.93;;;18.60;19.00;;;;;;5045160;28;20077;-62
2020/12/05 00:40:23;;;;;;;18.50;8.73;;;18.40;20.60;;;;;;5050456;28;20093;-60
2020/12/05 00:42:50;;;;;;;21.85;6.80;;;18.10;28.40;;;;;;5055241;28;20129;-62
2020/12/05 00:45:16;;;;;;;;;;;18.20;21.20;;;;;;5054086;28;20077;-60
2020/12/05 00:47:43;;;;;;;20.27;7.10;;;18.00;20.70;;;;;;5049981;28;19965;-59
2020/12/05 00:50:10;;;;;;;31.17;6.28;;;17.90;21.20;;;;;;5052379;28;20495;-63
2020/12/05 00:52:36;;;;;;;19.35;5.10;;;17.70;22.50;;;;;;5052257;28;20074;-62
2020/12/05 00:55:02;;;;;;;;;;;17.50;22.30;;;;;;5055397;28;20073;-59
2020/12/05 00:57:29;;;;;;;14.38;3.83;;;17.30;23.30;;;;;;5053603;28;19958;-62
2020/12/05 00:59:56;;;;;;;23.35;4.85;;;17.20;22.00;;;;;;5050164;28;20142;-63
2020/12/05 01:02:23;;;;;;;;;;;17.10;21.70;;;;;;5052614;28;20085;-57
2020/12/05 01:04:51;;;;;;;25.00;4.38;;;17.00;21.70;;;;;;5051128;28;20003;-64
2020/12/05 01:07:23;;;;;;;23.65;4.63;;;16.90;22.60;;;;;;5048359;28;20074;-62
2020/12/05 01:09:49;;;;;;;63.33;34.97;;;16.80;23.70;;;;;;5048691;28;20069;-61
2020/12/05 01:12:15;;;;;;;;;;;16.60;24.30;;;;;;5040570;28;20077;-62
2020/12/05 01:14:42;;;;;;;17.52;7.60;;;16.50;24.00;;;;;;5041776;28;19984;-61
2020/12/05 01:17:08;;;;;;;;;;;16.40;24.50;;;;;;5041520;28;20150;-59
2020/12/05 01:19:35;;;;;;;28.23;6.07;;;16.30;23.80;;;;;;5037995;28;20008;-61
2020/12/05 01:22:01;;;;;;;19.85;4.68;;;16.10;23.80;;;;;;5035216;28;20538;-63
2020/12/05 01:24:27;;;;;;;;;;;16.00;24.20;;;;;;5038034;28;20165;-61
2020/12/05 01:26:54;;;;;;;19.52;4.78;;;15.90;24.30;;;;;;5070792;28;19968;-59
2020/12/05 01:29:20;;;;;;;;;;;15.80;23.80;;;;;;5036673;28;20084;-62
2020/12/05 01:31:50;;;;;;;27.50;5.10;;;15.80;24.30;;;;;;5040134;28;19996;-62
2020/12/05 01:34:17;;;;;;;21.17;5.05;;;15.70;25.60;;;;;;5036573;28;20119;-59
2020/12/05 01:36:46;;;;;;;;;;;15.60;25.80;;;;;;5041515;28;20084;-62
2020/12/05 01:39:13;;;;;;;21.10;4.65;;;15.50;26.10;;;;;;5041939;28;19977;-60
2020/12/05 01:41:40;;;;;;;31.40;4.93;;;15.50;25.90;;;;;;5039694;28;20086;-60
2020/12/05 01:44:06;;;;;;;23.85;4.88;;;15.30;25.90;;;;;;5034498;28;20186;-62
2020/12/05 01:46:42;;;;;;;;;;;15.30;26.00;;;;;;5036702;28;20101;-60
2020/12/05 01:49:12;;;;;;;29.25;7.15;;;15.20;26.00;;;;;;5038563;28;20056;-60
2020/12/05 01:51:39;;;;;;;28.95;6.28;;;15.10;26.00;;;;;;5031530;28;20078;-61
2020/12/05 01:54:07;;;;;;;35.75;6.75;;;15.10;25.70;;;;;;5034794;28;20081;-59
2020/12/05 01:56:38;;;;;;;40.33;6.57;;;15.00;25.50;;;;;;5042884;28;20090;-59
2020/12/05 01:59:05;;;;;;;37.20;7.15;;;15.00;26.00;;;;;;5038079;28;20074;-61
2020/12/05 02:01:33;;;;;;;46.25;7.60;;;14.80;26.20;;;;;;5039572;28;20120;-61
2020/12/05 02:04:04;;;;;;;35.90;7.78;;;14.80;26.50;;;;;;5039490;28;20085;-61
2020/12/05 02:07:01;;;;;;;45.35;7.97;;;14.80;26.70;;;;;;5037878;28;20105;-62
2020/12/05 02:09:39;;;;;;;47.30;8.17;;;14.70;27.10;;;;;;5039562;28;20526;-62
2020/12/05 02:12:42;;;;;;;31.80;6.47;;;14.70;28.00;;;;;;5037951;28;20092;-60
2020/12/05 02:15:14;;;;;;;35.67;8.00;;;14.60;29.10;;;;;;5071223;28;20080;-60
2020/12/05 02:18:07;;;;;;;49.45;9.75;;;14.60;28.30;;;;;;5036754;28;20081;-61
2020/12/05 02:20:35;;;;;;;44.80;9.48;;;14.50;28.20;;;;;;5034903;28;20113;-59
2020/12/05 02:23:13;;;;;;;40.75;9.85;;;14.40;28.10;;;;;;5036031;28;20074;-62
2020/12/05 02:25:50;;;;;;;62.22;11.68;;;14.30;28.40;;;;;;5041609;28;20106;-62
2020/12/05 02:28:18;;;;;;;66.57;12.50;;;14.20;27.80;;;;;;5021920;28;20108;-61
2020/12/05 02:30:46;;;;;;;69.82;14.93;;;14.20;28.70;;;;;;5040230;28;20078;-60
2020/12/05 02:33:12;;;;;;;82.20;15.30;;;14.20;29.60;;;;;;5034185;28;20441;-60
2020/12/05 02:35:39;;;;;;;52.15;14.65;;;14.10;30.20;;;;;;5035902;28;20161;-64
2020/12/05 02:38:31;;;;;;;59.22;17.45;;;14.10;30.30;;;;;;5040448;28;20077;-62
2020/12/05 02:40:58;;;;;;;78.55;18.17;;;14.00;29.90;;;;;;5033539;28;20116;-62
2020/12/05 02:43:27;;;;;;;81.82;16.85;;;14.00;30.60;;;;;;5036826;28;20082;-60
2020/12/05 02:45:55;;;;;;;68.22;16.63;;;13.90;29.70;;;;;;5040375;28;20090;-60
2020/12/05 02:48:21;;;;;;;75.25;16.42;;;13.90;29.50;;;;;;5040172;28;20070;-61
2020/12/05 02:50:48;;;;;;;67.75;17.33;;;13.80;29.10;;;;;;5038982;28;21208;-60
2020/12/05 02:53:15;;;;;;;69.97;17.92;;;13.80;29.20;;;;;;5035658;28;20100;-60
2020/12/05 02:55:41;;;;;;;80.15;20.45;;;13.80;29.60;;;;;;5036126;28;20097;-61
2020/12/05 02:58:08;;;;;;;108.88;21.17;;;13.70;29.80;;;;;;5038727;28;20534;-61
2020/12/05 03:00:35;;;;;;;97.25;21.55;;;13.60;29.50;;;;;;5035454;28;20141;-60
2020/12/05 03:03:02;;;;;;;;;;;13.60;29.50;;;;;;5035532;28;20070;-61
2020/12/05 03:05:29;;;;;;;91.70;20.92;;;13.60;29.60;;;;;;5040843;28;20329;-61
2020/12/05 03:07:55;;;;;;;92.25;20.25;;;13.50;29.50;;;;;;5034908;28;20069;-58
2020/12/05 03:10:22;;;;;;;;;;;13.50;29.10;;;;;;5037574;28;20743;-60
2020/12/05 03:12:48;;;;;;;114.72;23.45;;;13.40;28.80;;;;;;5036919;28;19961;-61
2020/12/05 03:15:15;;;;;;;96.43;23.70;;;13.40;28.40;;;;;;5037867;28;20080;-59
2020/12/05 03:17:41;;;;;;;94.32;22.48;;;13.30;28.60;;;;;;5038272;28;20174;-60
2020/12/05 03:20:07;;;;;;;;;;;13.20;28.80;;;;;;5038275;28;20572;-62
2020/12/05 03:22:34;;;;;;;100.85;23.20;;;13.20;29.30;;;;;;5039591;28;19962;-59
2020/12/05 03:25:01;;;;;;;;;;;13.20;29.80;;;;;;5041678;28;20077;-61
2020/12/05 03:27:28;;;;;;;97.38;24.17;;;13.10;30.50;;;;;;5038319;28;19965;-61
2020/12/05 03:29:55;;;;;;;98.80;24.58;;;13.10;30.10;;;;;;5037086;28;20070;-60
2020/12/05 03:32:27;;;;;;;97.85;24.35;;;13.00;30.00;;;;;;5035272;28;20166;-60
2020/12/05 03:34:54;;;;;;;168.88;33.33;;;13.00;30.30;;;;;;5036248;28;20065;-57
2020/12/05 03:37:22;;;;;;;;;;;12.90;30.00;;;;;;5041033;28;20192;-62
2020/12/05 03:39:48;;;;;;;161.00;33.42;;;12.90;29.80;;;;;;5042227;28;19977;-60
2020/12/05 03:42:15;;;;;;;;;;;12.90;30.20;;;;;;5026415;28;20086;-63
2020/12/05 03:44:41;;;;;;;158.15;33.47;;;13.00;31.00;;;;;;5043519;28;19964;-61
2020/12/05 03:47:07;;;;;;;;;;;12.90;31.50;;;;;;5041059;28;20081;-60
2020/12/05 03:49:34;;;;;;;141.73;32.38;;;12.90;31.70;;;;;;5035332;28;19958;-61
2020/12/05 03:52:04;;;;;;;132.13;33.08;;;12.80;31.00;;;;;;5039761;28;20127;-61
2020/12/05 03:54:31;;;;;;;149.45;37.58;;;12.80;31.40;;;;;;5040655;28;20121;-61
2020/12/05 03:56:58;;;;;;;149.57;35.40;;;12.90;32.40;;;;;;5035258;28;20173;-60
2020/12/05 03:59:25;;;;;;;;;;;12.90;32.20;;;;;;5039871;28;20109;-59
2020/12/05 04:01:51;;;;;;;165.52;34.88;;;12.80;31.50;;;;;;5033255;28;20306;-61
2020/12/05 04:04:17;;;;;;;;;;;12.70;30.40;;;;;;5032625;28;20074;-61
2020/12/05 04:06:44;;;;;;;142.52;35.63;;;12.70;31.20;;;;;;5035502;28;19957;-62
2020/12/05 04:09:13;;;;;;;;;;;12.60;31.50;;;;;;5042037;28;20066;-60
2020/12/05 04:11:40;;;;;;;168.40;43.85;;;12.50;30.30;;;;;;5063914;28;19979;-60
2020/12/05 04:14:07;;;;;;;;;;;12.50;31.00;;;;;;5035940;28;20081;-58
2020/12/05 04:16:34;;;;;;;193.40;47.03;;;12.50;31.60;;;;;;5038746;28;19969;-58
2020/12/05 04:19:01;;;;;;;172.15;44.63;;;12.50;31.90;;;;;;5032811;28;20078;-57
2020/12/05 04:21:28;;;;;;;168.77;44.22;;;12.50;32.30;;;;;;5038138;28;20418;-63
2020/12/05 04:23:54;;;;;;;;;;;12.50;32.90;;;;;;5037558;28;20070;-61
2020/12/05 04:26:22;;;;;;;174.13;44.53;;;12.50;33.40;;;;;;5036008;28;19957;-60
2020/12/05 04:28:49;;;;;;;167.35;45.40;;;12.50;33.60;;;;;;5040261;28;20088;-59
2020/12/05 04:31:16;;;;;;;182.35;48.58;;;12.50;34.30;;;;;;5036337;28;20074;-62
2020/12/05 04:33:44;;;;;;;186.90;47.45;;;12.40;34.30;;;;;;5033127;28;20100;-59
2020/12/05 04:36:10;;;;;;;176.10;50.03;;;12.40;34.70;;;;;;5035579;28;20147;-61
2020/12/05 04:38:37;;;;;;;168.48;50.95;;;12.30;34.50;;;;;;5038951;28;20085;-62
2020/12/05 04:41:04;;;;;;;188.20;54.60;;;12.30;34.20;;;;;;5038531;28;20121;-59
2020/12/05 04:43:31;;;;;;;188.40;56.13;;;12.20;34.30;;;;;;5028535;28;20152;-61
2020/12/05 04:45:57;;;;;;;;;;;12.20;33.90;;;;;;5033377;28;20089;-60
2020/12/05 04:48:25;;;;;;;198.55;55.55;;;12.20;34.30;;;;;;5043215;28;19963;-60
2020/12/05 04:50:54;;;;;;;216.52;58.38;;;12.10;34.30;;;;;;5040924;28;20086;-61
2020/12/05 04:53:22;;;;;;;195.35;59.55;;;12.10;33.90;;;;;;5041915;28;20073;-60
2020/12/05 04:55:52;;;;;;;213.73;69.95;;;12.10;34.20;;;;;;5071141;28;20066;-59
2020/12/05 04:58:20;;;;;;;247.43;70.70;;;12.00;34.20;;;;;;5033054;28;20085;-59
2020/12/05 05:00:54;;;;;;;259.23;86.45;;;12.10;34.40;;;;;;5036839;28;20121;-60
2020/12/05 05:03:23;;;;;;;222.75;75.93;;;12.00;34.70;;;;;;5039363;28;20084;-62
2020/12/05 05:05:53;;;;;;;237.43;75.40;;;12.00;35.40;;;;;;5037378;28;20101;-61
2020/12/05 05:08:23;;;;;;;207.80;67.93;;;11.90;35.70;;;;;;5038862;28;20236;-61
2020/12/05 05:11:07;;;;;;;192.50;61.13;;;11.90;36.20;;;;;;5038006;28;20461;-62
2020/12/05 05:13:52;;;;;;;214.82;58.65;;;11.80;36.20;;;;;;5039185;28;20073;-61
2020/12/05 05:16:19;;;;;;;212.25;54.17;;;11.60;52.30;;;;;;5037256;28;20044;-61
2020/12/05 05:18:46;;;;;;;178.82;49.58;;;11.80;38.70;;;;;;5038886;28;20521;-60
2020/12/05 05:21:31;;;;;;;;;;;11.80;35.50;;;;;;5041342;28;20429;-59
2020/12/05 05:24:00;;;;;;;191.65;47.03;;;11.60;34.40;;;;;;5038765;28;20445;-61
2020/12/05 05:26:27;;;;;;;192.25;47.65;;;11.60;34.10;;;;;;5022304;28;20112;-59
2020/12/05 05:28:54;;;;;;;200.63;48.72;;;11.60;34.50;;;;;;5041931;28;20078;-58
2020/12/05 05:31:27;;;;;;;;;;;11.60;35.40;;;;;;5038475;28;20076;-58
2020/12/05 05:33:55;;;;;;;180.20;47.38;;;11.60;35.30;;;;;;5036423;28;19953;-60
2020/12/05 05:36:29;;;;;;;187.80;50.25;;;11.50;35.10;;;;;;5039472;28;20114;-60
2020/12/05 05:39:09;;;;;;;188.45;46.33;;;11.60;34.90;;;;;;5037872;28;20134;-59
2020/12/05 05:41:38;;;;;;;171.93;47.45;;;11.50;35.10;;;;;;5039686;28;20455;-62
2020/12/05 05:44:07;;;;;;;201.73;50.75;;;11.40;34.80;;;;;;5040418;28;20101;-62
2020/12/05 05:46:36;;;;;;;185.48;49.92;;;11.50;35.60;;;;;;5042707;28;20146;-61
2020/12/05 05:49:04;;;;;;;198.88;58.75;;;11.40;36.30;;;;;;5037568;28;20073;-58
2020/12/05 05:51:39;;;;;;;225.60;61.22;;;11.50;36.90;;;;;;5039148;28;20203;-60
2020/12/05 05:54:27;;;;;;;223.10;60.95;;;11.40;36.90;;;;;;5039222;28;20077;-59
2020/12/05 05:57:05;;;;;;;233.15;61.90;;;11.30;37.20;;;;;;5042083;28;20066;-60
2020/12/05 05:59:37;;;;;;;204.07;59.08;;;11.40;37.20;;;;;;5038501;28;20105;-60
2020/12/05 06:02:06;;;;;;;232.57;65.90;;;11.40;37.90;;;;;;5039449;28;20078;-59
2020/12/05 06:04:36;;;;;;;218.88;68.55;;;11.30;37.40;;;;;;5037015;28;20065;-60
2020/12/05 06:07:06;;;;;;;226.13;68.82;;;11.20;37.20;;;;;;5037232;28;20089;-60
2020/12/05 06:09:42;;;;;;;233.18;72.85;;;11.30;37.10;;;;;;5038203;28;20525;-62
2020/12/05 06:12:10;;;;;;;258.67;73.88;;;11.30;37.20;;;;;;5071012;28;20219;-60
2020/12/05 06:14:40;;;;;;;250.25;73.50;;;11.30;37.10;;;;;;5041354;28;20081;-59
2020/12/05 06:17:08;;;;;;;228.38;72.13;;;11.30;36.50;;;;;;5040276;28;20070;-60
2020/12/05 06:19:35;;;;;;;261.40;71.47;;;11.20;37.00;;;;;;5041505;28;20550;-60
2020/12/05 06:22:01;;;;;;;244.23;70.97;;;11.20;36.70;;;;;;5039199;28;20069;-60
2020/12/05 06:24:53;;;;;;;;;;;11.20;36.90;;;;;;5038692;28;20085;-59
2020/12/05 06:27:21;;;;;;;220.88;68.00;;;11.10;37.10;;;;;;5039191;28;20027;-63
2020/12/05 06:29:48;;;;;;;241.82;69.78;;;11.10;38.00;;;;;;5042120;28;20077;-62
2020/12/05 06:32:44;;;;;;;244.82;69.90;;;10.90;37.10;;;;;;5040780;28;20086;-61
2020/12/05 06:35:23;;;;;;;224.95;68.85;;;10.90;37.40;;;;;;5037643;28;20093;-64
2020/12/05 06:37:54;;;;;;;233.10;72.93;;;10.80;36.70;;;;;;5037313;28;20090;-59
2020/12/05 06:40:21;;;;;;;253.13;79.22;;;10.80;36.30;;;;;;5034903;28;20109;-60
2020/12/05 06:42:50;;;;;;;279.85;82.35;;;10.80;36.50;;;;;;5041778;28;20071;-60
2020/12/05 06:45:46;;;;;;;282.25;86.82;;;10.80;36.90;;;;;;5041296;28;20074;-61
2020/12/05 06:48:12;;;;;;;292.05;84.45;;;10.80;37.60;;;;;;5038103;28;20558;-62
2020/12/05 06:50:41;;;;;;;250.55;81.70;;;10.80;37.60;;;;;;5043846;28;20536;-62
2020/12/05 06:53:23;;;;;;;265.52;80.85;;;10.80;37.50;;;;;;5041614;28;20169;-62
2020/12/05 06:55:51;;;;;;;258.52;80.13;;;10.80;37.20;;;;;;5038217;28;20077;-63
2020/12/05 06:58:28;;;;;;;263.98;81.18;;;10.80;37.40;;;;;;5037707;28;20130;-59
2020/12/05 07:00:56;;;;;;;275.73;83.40;;;10.80;37.90;;;;;;5038508;28;20113;-59
2020/12/05 07:03:26;;;;;;;246.13;79.72;;;10.80;46.40;;;;;;5034850;28;20074;-59
2020/12/05 07:05:52;;;;;;;247.20;76.18;;;10.80;38.00;;;;;;5033366;28;20411;-58
2020/12/05 07:08:23;;;;;;;236.90;74.80;;;10.60;38.40;;;;;;5034189;28;20093;-60
2020/12/05 07:10:58;;;;;;;244.98;78.88;;;10.60;37.60;;;;;;5030820;28;20081;-60
2020/12/05 07:13:28;;;;;;;229.77;76.47;;;10.60;38.30;;;;;;5037011;28;20145;-61
2020/12/05 07:16:16;;;;;;;223.27;72.80;;;10.60;38.40;;;;;;5034263;28;20065;-62
2020/12/05 07:18:45;;;;;;;220.70;68.90;;;10.60;37.90;;;;;;5035587;28;20403;-60
2020/12/05 07:21:11;;;;;;;225.32;66.65;;;10.50;37.10;;;;;;5039439;28;20180;-60
2020/12/05 07:23:38;;;;;;;229.00;64.03;;;10.60;37.30;;;;;;5037772;28;20152;-58
2020/12/05 07:26:06;;;;;;;209.43;64.20;;;10.60;37.20;;;;;;5035980;28;20502;-60
2020/12/05 07:28:33;;;;;;;222.15;63.63;;;10.70;38.30;;;;;;5033074;28;21546;-62
2020/12/05 07:31:01;;;;;;;187.48;61.75;;;10.70;38.80;;;;;;5034048;28;20569;-61
2020/12/05 07:33:28;;;;;;;199.07;59.58;;;10.70;38.00;;;;;;5038918;28;20137;-60
2020/12/05 07:36:06;;;;;;;187.38;60.17;;;10.70;38.30;;;;;;5037003;28;20078;-58
2020/12/05 07:38:40;;;;;;;200.93;59.30;;;10.70;38.40;;;;;;5034437;28;20073;-59
2020/12/05 07:41:23;;;;;;;190.85;56.38;;;10.60;37.70;;;;;;5036545;28;20101;-59
2020/12/05 07:43:56;;;;;;;190.60;58.92;;;10.60;37.60;;;;;;5037262;28;20073;-59
2020/12/05 07:46:22;;;;;;;176.80;52.80;;;10.60;38.70;;;;;;5040933;28;20077;-58
2020/12/05 07:48:49;;;;;;;170.73;54.35;;;10.50;38.40;;;;;;5034680;28;20081;-61
2020/12/05 07:51:17;;;;;;;195.98;54.00;;;10.50;38.20;;;;;;5040170;28;20177;-60
2020/12/05 07:53:46;;;;;;;175.65;51.63;;;10.50;37.10;;;;;;5032771;28;20070;-60
2020/12/05 07:56:16;;;;;;;168.50;54.83;;;10.50;37.80;;;;;;5034530;28;20078;-62
2020/12/05 07:59:03;;;;;;;163.30;52.65;;;10.30;37.70;;;;;;5032106;28;21278;-57
2020/12/05 08:01:52;;;;;;;158.55;49.53;;;10.30;38.10;;;;;;5037286;28;20169;-61
2020/12/05 08:04:54;;;;;;;170.98;50.70;;;10.10;36.80;;;;;;5035989;28;20066;-61
2020/12/05 08:07:37;;;;;;;177.20;47.67;;;10.10;36.60;;;;;;5037355;28;20081;-59
2020/12/05 08:10:18;;;;;;;169.30;47.90;;;10.10;36.50;;;;;;5030566;28;20109;-58
2020/12/05 08:12:44;;;;;;;149.85;46.22;;;10.20;37.10;;;;;;5032701;28;20074;-60
2020/12/05 08:15:20;;;;;;;;;;;10.20;37.50;;;;;;5036504;28;20411;-59
2020/12/05 08:17:48;;;;;;;127.22;41.65;;;10.10;38.60;;;;;;5033964;28;20390;-62
2020/12/05 08:20:15;;;;;;;137.38;43.28;;;10.10;38.50;;;;;;5034214;28;20089;-60
2020/12/05 08:22:42;;;;;;;148.98;43.80;;;10.00;38.10;;;;;;5036714;28;20070;-62
2020/12/05 08:25:10;;;;;;;;;;;10.10;38.50;;;;;;5037203;28;20101;-58
2020/12/05 08:27:37;;;;;;;153.30;44.20;;;10.10;38.40;;;;;;5041148;28;20003;-60
2020/12/05 08:30:06;;;;;;;134.63;44.10;;;10.00;38.50;;;;;;5037930;28;20140;-59
2020/12/05 08:32:33;;;;;;;147.35;43.78;;;10.00;38.30;;;;;;5038106;28;20074;-59
2020/12/05 08:35:19;;;;;;;143.98;41.97;;;10.00;38.20;;;;;;5041905;28;20078;-60
2020/12/05 08:37:46;;;;;;;122.45;41.33;;;10.00;39.00;;;;;;5043075;28;20075;-59
2020/12/05 08:40:17;;;;;;;125.70;40.00;;;10.00;39.10;;;;;;5039593;28;20100;-58
2020/12/05 08:42:48;;;;;;;123.70;38.67;;;9.90;37.50;;;;;;5038930;28;20073;-60
2020/12/05 08:45:20;;;;;;;143.80;39.67;;;9.90;37.80;;;;;;5037836;28;20080;-62
2020/12/05 08:47:48;;;;;;;118.95;36.42;;;9.80;38.30;;;;;;5037548;28;20102;-61
2020/12/05 08:50:23;;;;;;;115.45;34.92;;;9.80;37.80;;;;;;5036262;28;20161;-61
2020/12/05 08:52:53;;;;;;;108.07;30.38;;;9.70;37.50;;;;;;5039616;28;20108;-61
2020/12/05 08:55:25;;;;;;;92.10;31.60;;;9.70;36.20;;;;;;5039785;28;20422;-58
2020/12/05 08:57:57;;;;;;;108.72;30.02;;;9.60;36.10;;;;;;5040992;28;20078;-57
2020/12/05 09:00:28;;;;;;;90.45;28.55;;;9.60;36.80;;;;;;5039886;28;20120;-58
2020/12/05 09:02:55;;;;;;;92.28;28.13;;;9.50;37.10;;;;;;5038135;28;20105;-61
2020/12/05 09:05:21;;;;;;;;;;;9.50;37.20;;;;;;5022845;28;20089;-61
2020/12/05 09:07:59;;;;;;;91.07;25.70;;;9.50;37.10;;;;;;5042615;28;19957;-60
2020/12/05 09:10:28;;;;;;;89.13;28.58;;;9.50;36.30;;;;;;5040365;28;20156;-61
2020/12/05 09:13:06;;;;;;;88.35;26.80;;;9.50;36.90;;;;;;5039083;28;20088;-62
2020/12/05 09:15:35;;;;;;;87.78;26.20;;;9.50;37.70;;;;;;5040493;28;20564;-62
2020/12/05 09:18:02;;;;;;;87.80;28.17;;;9.40;37.30;;;;;;5041143;28;20078;-57
2020/12/05 09:20:29;;;;;;;84.18;27.63;;;9.30;36.10;;;;;;5037186;28;20220;-56
2020/12/05 09:22:59;;;;;;;97.90;28.23;;;9.20;35.40;;;;;;5069013;28;20128;-59
2020/12/05 09:25:34;;;;;;;104.07;28.02;;;9.10;34.60;;;;;;5055457;28;20077;-58
2020/12/05 09:28:02;;;;;;;102.88;29.85;;;9.20;34.70;;;;;;5035905;28;20088;-60
2020/12/05 09:30:29;;;;;;;96.50;30.02;;;9.20;36.10;;;;;;5039651;28;20065;-61
2020/12/05 09:32:56;;;;;;;95.97;29.90;;;9.20;36.20;;;;;;5036648;28;20070;-60
2020/12/05 09:35:27;;;;;;;92.05;31.08;;;9.20;36.20;;;;;;5039966;28;20070;-59
2020/12/05 09:37:55;;;;;;;139.13;37.75;;;9.20;37.30;;;;;;5036357;28;20090;-61
2020/12/05 09:40:22;;;;;;;124.35;38.88;;;8.90;37.00;;;;;;5040067;28;20093;-59
2020/12/05 09:42:48;;;;;;;171.65;43.05;;;8.90;36.50;;;;;;5035446;28;20081;-58
2020/12/05 09:45:15;;;;;;;;;;;8.90;36.40;;;;;;5037880;28;20140;-61
2020/12/05 09:47:43;;;;;;;162.93;45.38;;;9.00;36.10;;;;;;5036779;28;19957;-60
2020/12/05 09:50:11;;;;;;;151.63;46.72;;;9.10;36.00;;;;;;5038940;28;20425;-63
2020/12/05 09:52:38;;;;;;;163.82;50.42;;;9.10;36.30;;;;;;5040946;28;20584;-62
2020/12/05 09:55:06;;;;;;;182.25;52.83;;;9.10;36.30;;;;;;5036394;28;20092;-60
2020/12/05 09:57:35;;;;;;;159.18;50.00;;;9.10;36.60;;;;;;5036075;28;20077;-61
2020/12/05 10:00:05;;;;;;;186.45;53.28;;;9.10;36.90;;;;;;5038673;28;20516;-60
2020/12/05 10:02:32;;;;;;;169.73;52.67;;;9.10;38.00;;;;;;5019700;28;20513;-62
2020/12/05 10:04:58;;;;;;;;;;;9.10;38.00;;;;;;5039777;28;20462;-61
2020/12/05 10:07:28;;;;;;;213.57;57.17;;;9.00;37.70;;;;;;5036529;28;20002;-60
2020/12/05 10:09:54;;;;;;;205.25;61.20;;;9.00;37.50;;;;;;5040658;28;20070;-59
2020/12/05 10:12:20;;;;;;;;;;;9.00;37.50;;;;;;5038914;28;20074;-58
2020/12/05 10:14:47;;;;;;;215.55;60.33;;;9.00;38.10;;;;;;5038249;28;20088;-60
2020/12/05 10:17:13;;;;;;;191.18;56.88;;;9.00;38.70;;;;;;5039219;28;20156;-61
2020/12/05 10:19:40;;;;;;;207.43;59.78;;;9.00;39.40;;;;;;5040002;28;20628;-61
2020/12/05 10:22:06;;;;;;;;;;;8.90;38.70;;;;;;5040391;28;20085;-60
2020/12/05 10:24:33;;;;;;;220.15;60.55;;;8.90;37.70;;;;;;5038558;28;20047;-63
2020/12/05 10:26:59;;;;;;;;;;;8.80;37.70;;;;;;5037367;28;20535;-62
2020/12/05 10:29:26;;;;;;;184.18;58.38;;;8.90;37.80;;;;;;5039396;28;20360;-60
2020/12/05 10:31:54;;;;;;;196.88;60.97;;;8.80;37.50;;;;;;5048988;28;20075;-60
2020/12/05 10:34:21;;;;;;;193.75;57.30;;;8.80;38.30;;;;;;5041998;28;20863;-58
2020/12/05 10:36:48;;;;;;;191.90;57.75;;;8.80;38.40;;;;;;5040768;28;20077;-61
2020/12/05 10:39:18;;;;;;;188.60;58.28;;;8.80;39.00;;;;;;5039704;28;20452;-60
2020/12/05 10:41:49;;;;;;;199.68;58.53;;;8.80;38.30;;;;;;5038779;28;20074;-57
2020/12/05 10:44:16;;;;;;;202.73;56.60;;;8.80;38.10;;;;;;5069342;28;20080;-61
2020/12/05 10:46:45;;;;;;;190.85;56.17;;;8.80;37.70;;;;;;5040763;28;20530;-60
2020/12/05 10:49:12;;;;;;;183.98;56.38;;;8.80;37.60;;;;;;5033958;28;20073;-60
2020/12/05 10:51:39;;;;;;;181.60;55.42;;;8.80;37.80;;;;;;5042393;28;20069;-60
2020/12/05 10:54:09;;;;;;;164.93;51.67;;;8.70;38.10;;;;;;5037841;28;20070;-61
2020/12/05 10:56:38;;;;;;;164.05;53.67;;;8.70;39.00;;;;;;5040018;28;20081;-61
2020/12/05 10:59:05;;;;;;;159.15;53.60;;;8.80;39.00;;;;;;5039045;28;20066;-60
2020/12/05 11:01:32;;;;;;;164.95;50.42;;;8.70;38.50;;;;;;5020858;28;20566;-60
2020/12/05 11:03:59;;;;;;;151.27;50.22;;;8.60;38.20;;;;;;5037630;28;20074;-62
2020/12/05 11:06:27;;;;;;;155.32;49.03;;;8.70;37.90;;;;;;5036722;28;21227;-60
2020/12/05 11:08:54;;;;;;;153.77;46.47;;;8.60;40.10;;;;;;5063958;28;20094;-61
2020/12/05 11:11:22;;;;;;;123.15;42.05;;;8.60;37.50;;;;;;5039658;28;20093;-61
2020/12/05 11:13:49;;;;;;;131.93;41.45;;;8.60;36.90;;;;;;5039942;28;20076;-62
2020/12/05 11:16:21;;;;;;;126.13;36.80;;;8.60;36.40;;;;;;5038412;28;20180;-61
2020/12/05 11:18:48;;;;;;;100.88;35.58;;;8.60;35.90;;;;;;5038097;28;20074;-62
2020/12/05 11:21:15;;;;;;;105.75;33.63;;;8.60;36.30;;;;;;5035891;28;20089;-58
2020/12/05 11:23:41;;;;;;;113.20;33.55;;;8.60;35.60;;;;;;5034177;28;20077;-61
2020/12/05 11:26:08;;;;;;;103.40;32.70;;;8.60;35.60;;;;;;5039717;28;20108;-60
2020/12/05 11:28:35;;;;;;;88.18;30.05;;;8.60;35.10;;;;;;5035979;28;20073;-61
2020/12/05 11:31:02;;;;;;;99.82;29.95;;;8.60;35.00;;;;;;5036333;28;20074;-60
2020/12/05 11:33:29;;;;;;;81.68;28.98;;;8.60;35.50;;;;;;5031838;28;20518;-59
2020/12/05 11:35:55;;;;;;;;;;;8.60;35.60;;;;;;5039687;28;20105;-61
2020/12/05 11:38:21;;;;;;;85.75;27.77;;;8.60;35.90;;;;;;5037682;28;19957;-62
2020/12/05 11:40:48;;;;;;;;;;;8.60;34.70;;;;;;5037930;28;20089;-61
2020/12/05 11:43:15;;;;;;;70.30;23.58;;;8.60;34.10;;;;;;5036575;28;19963;-60
2020/12/05 11:45:42;;;;;;;67.95;23.33;;;8.60;33.70;;;;;;5040892;28;20070;-61
2020/12/05 11:48:09;;;;;;;84.75;23.50;;;8.50;35.00;;;;;;5037306;28;20077;-59
2020/12/05 11:50:36;;;;;;;74.38;23.58;;;8.40;34.30;;;;;;5039925;28;20096;-60
2020/12/05 11:53:03;;;;;;;77.85;23.83;;;8.40;34.10;;;;;;5035470;28;20074;-58
2020/12/05 11:55:29;;;;;;;64.80;23.75;;;8.50;34.80;;;;;;5040463;28;20073;-59
2020/12/05 11:57:58;;;;;;;61.75;23.50;;;8.40;35.20;;;;;;5035827;28;20080;-60
2020/12/05 12:00:25;;;;;;;76.55;23.45;;;8.40;34.90;;;;;;5033108;28;20139;-59
2020/12/05 12:02:55;;;;;;;62.78;23.73;;;8.40;34.20;;;;;;5032350;28;20161;-58
2020/12/05 12:05:22;;;;;;;73.80;23.83;;;8.30;34.20;;;;;;5039004;28;20591;-60
2020/12/05 12:07:49;;;;;;;63.50;21.60;;;8.30;33.70;;;;;;5035279;28;20128;-58
2020/12/05 12:10:17;;;;;;;64.13;19.45;;;8.20;33.90;;;;;;5038207;28;20092;-61
2020/12/05 12:12:44;;;;;;;73.70;22.05;;;8.20;34.10;;;;;;5035320;28;20523;-60
2020/12/05 12:15:14;;;;;;;82.47;24.27;;;8.10;34.80;;;;;;5037574;28;20084;-62
2020/12/05 12:17:41;;;;;;;65.72;25.40;;;8.00;34.70;;;;;;5039821;28;20109;-61
2020/12/05 12:20:08;;;;;;;70.20;23.98;;;8.00;35.00;;;;;;5036212;28;21510;-56
2020/12/05 12:22:35;;;;;;;69.65;23.35;;;8.00;34.60;;;;;;5034986;28;20078;-57
2020/12/05 12:25:02;;;;;;;70.65;23.90;;;7.90;34.50;;;;;;5039781;28;20124;-57
2020/12/05 12:27:28;;;;;;;70.47;23.55;;;7.90;34.50;;;;;;5034684;28;20108;-61
2020/12/05 12:29:55;;;;;;;64.15;21.42;;;7.90;33.90;;;;;;5036197;28;20077;-61
2020/12/05 12:32:21;;;;;;;;;;;7.80;34.20;;;;;;5032461;28;20115;-62
2020/12/05 12:34:50;;;;;;;52.65;20.75;;;7.80;33.70;;;;;;5034502;28;20079;-57
2020/12/05 12:37:18;;;;;;;64.45;21.63;;;7.80;33.60;;;;;;5035126;28;20542;-60
2020/12/05 12:39:44;;;;;;;53.55;20.13;;;7.80;33.90;;;;;;5034731;28;20646;-60
2020/12/05 12:42:10;;;;;;;;;;;7.70;34.30;;;;;;5036936;28;20123;-60
2020/12/05 12:44:37;;;;;;;73.63;22.88;;;7.70;35.40;;;;;;5036472;28;20441;-60
2020/12/05 12:49:42;;;;;;;70.53;20.80;;;7.70;34.80;;;;;;5032665;28;19958;-60
2020/12/05 12:52:09;;;;;;;64.18;20.30;;;7.60;35.30;;;;;;5035905;28;20411;-60
2020/12/05 12:54:36;;;;;;;59.38;19.67;;;7.60;35.20;;;;;;5036246;28;20519;-59